createdAt,value
2022-12-26T00:00:56.994Z,23.80
2022-12-26T00:03:24.113Z,23.50
2022-12-26T00:05:51.226Z,24.90
2022-12-26T00:08:18.574Z,24.40
2022-12-26T00:10:45.538Z,24.60
2022-12-26T00:13:40.033Z,25.30
2022-12-26T00:15:59.615Z,24.10
2022-12-26T00:18:26.640Z,22.50
2022-12-26T00:20:53.573Z,24.00
2022-12-26T00:23:23.072Z,23.70
2022-12-26T00:25:50.045Z,25.70
2022-12-26T00:28:17.372Z,26.40
2022-12-26T00:30:44.422Z,25.90
2022-12-26T00:33:11.366Z,25.10
2022-12-26T00:35:38.411Z,23.70
2022-12-26T00:38:05.361Z,23.50
2022-12-26T00:40:32.206Z,24.50
2022-12-26T00:42:59.145Z,22.90
2022-12-26T00:45:26.088Z,26.70
2022-12-26T00:47:56.520Z,28.20
2022-12-26T00:50:23.342Z,28.30
2022-12-26T00:52:50.300Z,23.50
2022-12-26T00:55:17.270Z,23.30
2022-12-26T00:57:44.192Z,23.50
2022-12-26T01:00:12.077Z,22.90
2022-12-26T01:02:39.188Z,24.10
2022-12-26T01:05:10.555Z,26.60
2022-12-26T01:08:22.825Z,24.40
2022-12-26T01:10:25.228Z,24.90
2022-12-26T01:12:52.178Z,24.80
2022-12-26T01:15:19.120Z,25.40
2022-12-26T01:17:46.063Z,25.10
2022-12-26T01:20:14.451Z,26.20
2022-12-26T01:22:41.414Z,23.80
2022-12-26T01:25:08.953Z,21.70
2022-12-26T01:27:35.893Z,21.00
2022-12-26T01:30:02.833Z,22.30
2022-12-26T01:32:29.777Z,21.80
2022-12-26T01:34:56.692Z,20.60
2022-12-26T01:37:23.788Z,22.30
2022-12-26T01:39:52.153Z,21.40
2022-12-26T01:42:21.327Z,20.00
2022-12-26T01:45:05.103Z,19.40
2022-12-26T01:47:35.017Z,20.00
2022-12-26T01:50:01.966Z,22.40
2022-12-26T01:52:32.475Z,26.20
2022-12-26T01:54:59.415Z,36.50
2022-12-26T01:57:31.481Z,28.00
2022-12-26T01:59:58.736Z,26.00
2022-12-26T02:02:26.672Z,28.70
2022-12-26T02:05:32.561Z,30.00
2022-12-26T02:07:59.466Z,37.40
2022-12-26T02:10:26.346Z,34.60
2022-12-26T02:12:53.240Z,25.10
2022-12-26T02:15:20.238Z,17.00
2022-12-26T02:17:47.392Z,16.50
2022-12-26T02:20:26.043Z,16.40
2022-12-26T02:23:12.208Z,17.20
2022-12-26T02:26:21.135Z,17.90
2022-12-26T02:28:56.878Z,17.80
2022-12-26T02:31:29.687Z,19.50
2022-12-26T02:34:14.146Z,15.90
2022-12-26T02:36:47.205Z,19.40
2022-12-26T02:42:15.908Z,13.50
2022-12-26T02:45:11.343Z,15.30
2022-12-26T02:47:55.363Z,14.90
2022-12-26T02:50:48.937Z,13.70
2022-12-26T02:56:34.841Z,12.70
2022-12-26T02:59:54.581Z,13.60
2022-12-26T03:02:42.838Z,13.20
2022-12-26T03:05:35.931Z,12.70
2022-12-26T03:08:22.225Z,13.80
2022-12-26T03:11:08.112Z,14.40
2022-12-26T03:13:37.045Z,14.00
2022-12-26T03:16:25.683Z,13.70
2022-12-26T03:19:00.591Z,14.70
2022-12-26T03:21:30.062Z,15.00
2022-12-26T03:23:57.140Z,17.20
2022-12-26T03:26:40.923Z,17.40
2022-12-26T03:29:31.084Z,16.10
2022-12-26T03:31:58.363Z,17.00
2022-12-26T03:34:25.377Z,15.60
2022-12-26T03:37:21.803Z,15.80
2022-12-26T03:40:45.308Z,20.10
2022-12-26T03:43:40.387Z,20.40
2022-12-26T03:46:26.099Z,19.70
2022-12-26T03:49:34.477Z,15.20
2022-12-26T03:52:43.926Z,14.80
2022-12-26T03:55:45.268Z,16.70
2022-12-26T03:58:46.678Z,15.90
2022-12-26T04:01:38.794Z,17.50
2022-12-26T04:04:26.179Z,19.80
2022-12-26T04:07:16.992Z,17.10
2022-12-26T04:10:31.143Z,16.00
2022-12-26T04:16:06.802Z,16.30
2022-12-26T04:19:26.406Z,18.60
2022-12-26T04:22:13.980Z,20.90
2022-12-26T04:25:49.850Z,22.10
2022-12-26T04:28:28.397Z,18.80
2022-12-26T04:31:26.120Z,18.40
2022-12-26T04:34:21.708Z,16.50
2022-12-26T04:37:16.185Z,17.50
2022-12-26T04:40:02.996Z,19.70
2022-12-26T04:42:51.152Z,17.60
2022-12-26T04:45:18.094Z,16.20
2022-12-26T04:48:04.989Z,16.70
2022-12-26T04:50:31.794Z,15.80
2022-12-26T04:53:01.619Z,15.90
2022-12-26T04:55:32.822Z,15.40
2022-12-26T04:57:59.798Z,14.30
2022-12-26T05:00:28.160Z,14.80
2022-12-26T05:03:18.689Z,13.70
2022-12-26T05:06:14.072Z,15.10
2022-12-26T05:09:03.718Z,15.90
2022-12-26T05:11:32.232Z,17.60
2022-12-26T05:13:59.379Z,18.90
2022-12-26T05:16:45.301Z,15.90
2022-12-26T05:19:35.320Z,16.70
2022-12-26T05:22:21.106Z,17.90
2022-12-26T05:26:45.645Z,20.70
2022-12-26T05:29:12.730Z,19.10
2022-12-26T05:31:39.810Z,22.30
2022-12-26T05:34:07.852Z,22.00
2022-12-26T05:36:39.005Z,19.80
2022-12-26T05:39:06.552Z,19.10
2022-12-26T05:41:33.593Z,20.00
2022-12-26T05:44:00.527Z,20.70
2022-12-26T05:46:27.645Z,22.80
2022-12-26T05:48:54.627Z,24.70
2022-12-26T05:51:21.679Z,17.20
2022-12-26T05:53:48.728Z,17.50
2022-12-26T05:56:16.501Z,15.50
2022-12-26T05:58:43.429Z,16.30
2022-12-26T06:01:29.253Z,15.50
2022-12-26T06:03:57.937Z,13.40
2022-12-26T06:06:25.700Z,14.10
2022-12-26T06:08:54.655Z,12.60
2022-12-26T06:11:22.055Z,13.40
2022-12-26T06:13:49.059Z,13.00
2022-12-26T06:16:17.060Z,13.50
2022-12-26T06:18:44.134Z,13.00
2022-12-26T06:21:12.752Z,14.20
2022-12-26T06:23:39.723Z,12.80
2022-12-26T06:26:08.063Z,14.20
2022-12-26T06:28:35.126Z,13.00
2022-12-26T06:31:06.748Z,12.80
2022-12-26T06:33:33.832Z,13.80
2022-12-26T06:36:08.721Z,12.90
2022-12-26T06:38:35.703Z,13.50
2022-12-26T06:41:05.278Z,13.50
2022-12-26T06:43:32.254Z,13.20
2022-12-26T06:46:00.287Z,12.20
2022-12-26T06:48:27.481Z,13.60
2022-12-26T06:50:54.570Z,14.40
2022-12-26T06:53:22.829Z,15.60
2022-12-26T06:55:50.271Z,15.20
2022-12-26T06:58:17.727Z,17.90
2022-12-26T07:00:44.740Z,16.70
2022-12-26T07:03:11.855Z,15.20
2022-12-26T07:05:38.896Z,16.20
2022-12-26T07:08:07.138Z,15.10
2022-12-26T07:10:37.361Z,16.50
2022-12-26T07:13:04.443Z,16.80
2022-12-26T07:15:31.727Z,16.80
2022-12-26T07:18:02.388Z,16.00
2022-12-26T07:20:29.333Z,23.80
2022-12-26T07:22:56.577Z,16.30
2022-12-26T07:25:23.635Z,19.50
2022-12-26T07:27:53.988Z,17.00
2022-12-26T07:30:21.502Z,16.30
2022-12-26T07:32:48.466Z,17.60
2022-12-26T07:35:15.387Z,15.10
2022-12-26T07:37:42.346Z,15.00
2022-12-26T07:40:10.924Z,15.40
2022-12-26T07:42:37.867Z,16.50
2022-12-26T07:45:05.529Z,17.10
2022-12-26T07:47:32.474Z,16.10
2022-12-26T07:49:59.527Z,15.60
2022-12-26T07:52:28.667Z,15.70
2022-12-26T07:55:00.591Z,14.70
2022-12-26T07:57:48.235Z,15.80
2022-12-26T08:00:16.808Z,16.90
2022-12-26T08:02:43.916Z,19.40
2022-12-26T08:05:13.574Z,20.10
2022-12-26T08:07:40.605Z,16.40
2022-12-26T08:10:07.964Z,16.40
2022-12-26T08:12:37.249Z,15.90
2022-12-26T08:15:04.806Z,16.40
2022-12-26T08:17:33.207Z,16.40
2022-12-26T08:20:00.116Z,17.80
2022-12-26T08:22:27.402Z,18.10
2022-12-26T08:24:54.327Z,16.40
2022-12-26T08:27:21.146Z,15.40
2022-12-26T08:29:48.216Z,15.90
2022-12-26T08:32:15.177Z,16.80
2022-12-26T08:34:42.205Z,18.60
2022-12-26T08:37:09.123Z,18.70
2022-12-26T08:39:36.162Z,17.30
2022-12-26T08:42:03.146Z,18.00
2022-12-26T08:44:30.044Z,16.40
2022-12-26T08:46:57.442Z,16.20
2022-12-26T08:49:24.298Z,18.00
2022-12-26T08:51:51.259Z,17.20
2022-12-26T08:54:18.077Z,19.20
2022-12-26T08:56:45.040Z,20.10
2022-12-26T08:59:12.062Z,17.10
2022-12-26T09:01:39.116Z,16.90
2022-12-26T09:04:07.644Z,16.20
2022-12-26T09:06:35.860Z,17.90
2022-12-26T09:09:03.123Z,17.10
2022-12-26T09:11:30.889Z,18.90
2022-12-26T09:13:59.351Z,17.50
2022-12-26T09:16:39.329Z,16.20
2022-12-26T09:19:14.220Z,19.10
2022-12-26T09:21:41.411Z,19.20
2022-12-26T09:24:11.431Z,21.20
2022-12-26T09:26:38.459Z,21.10
2022-12-26T09:29:05.319Z,21.60
2022-12-26T09:31:33.580Z,20.20
2022-12-26T09:34:03.392Z,20.40
2022-12-26T09:36:31.878Z,22.40
2022-12-26T09:38:59.443Z,21.90
2022-12-26T09:41:35.520Z,20.60
2022-12-26T09:44:20.357Z,23.30
2022-12-26T09:46:56.556Z,21.70
2022-12-26T09:49:26.460Z,20.40
2022-12-26T09:51:55.766Z,20.50
2022-12-26T09:54:37.622Z,20.80
2022-12-26T09:57:15.010Z,22.50
2022-12-26T10:00:01.718Z,29.20
2022-12-26T10:02:28.804Z,23.60
2022-12-26T10:04:55.972Z,20.60
2022-12-26T10:07:28.431Z,18.30
2022-12-26T13:16:21.369Z,23.40
2022-12-26T13:19:00.214Z,22.30
2022-12-26T13:21:27.160Z,21.40
2022-12-26T13:24:19.913Z,23.80
2022-12-26T13:26:59.246Z,23.00
2022-12-26T13:29:34.583Z,28.90
2022-12-26T13:32:02.373Z,30.70
2022-12-26T13:34:29.345Z,28.20
2022-12-26T13:36:57.538Z,24.80
2022-12-26T13:39:32.107Z,23.40
2022-12-26T13:42:24.152Z,25.60
2022-12-26T13:44:53.648Z,26.40
2022-12-26T13:47:32.721Z,32.60
2022-12-26T13:50:00.846Z,38.60
2022-12-26T13:52:35.880Z,37.90
2022-12-26T13:55:06.842Z,25.70
2022-12-26T13:57:42.823Z,26.10
2022-12-26T14:00:15.176Z,24.60
2022-12-26T14:03:18.731Z,26.80
2022-12-26T14:06:12.942Z,35.50
2022-12-26T14:08:58.406Z,45.20
2022-12-26T14:11:31.600Z,36.80
2022-12-26T14:14:11.656Z,29.30
2022-12-26T14:17:08.125Z,27.60
2022-12-26T14:19:47.205Z,27.70
2022-12-26T14:22:46.198Z,28.60
2022-12-26T14:25:16.146Z,30.60
2022-12-26T14:27:52.691Z,31.30
2022-12-26T14:30:22.520Z,29.00
2022-12-26T14:33:16.014Z,28.80
2022-12-26T14:36:09.838Z,28.10
2022-12-26T14:38:57.722Z,28.50
2022-12-26T14:41:43.669Z,29.00
2022-12-26T14:44:14.498Z,32.70
2022-12-26T14:46:41.353Z,36.20
2022-12-26T14:49:39.575Z,36.10
2022-12-26T14:52:25.314Z,35.10
2022-12-26T14:54:53.439Z,31.60
2022-12-26T14:57:40.222Z,31.70
2022-12-26T15:00:14.190Z,34.00
2022-12-26T15:02:43.609Z,32.60
2022-12-26T15:05:13.921Z,31.80
2022-12-26T15:07:53.176Z,31.40
2022-12-26T15:10:42.350Z,31.50
2022-12-26T15:13:30.192Z,35.50
2022-12-26T15:16:16.650Z,33.80
2022-12-26T15:19:29.187Z,35.40
2022-12-26T15:22:33.392Z,35.80
2022-12-26T15:25:25.421Z,37.20
2022-12-26T15:27:59.635Z,32.90
2022-12-26T15:30:32.840Z,31.60
2022-12-26T15:33:22.194Z,32.60
2022-12-26T15:36:02.949Z,31.10
2022-12-26T15:38:55.511Z,33.90
2022-12-26T15:48:03.463Z,53.50
2022-12-26T15:51:02.216Z,53.80
2022-12-26T15:53:54.796Z,50.60
2022-12-26T15:56:24.996Z,51.40
2022-12-26T15:59:34.189Z,33.50
2022-12-26T16:02:01.749Z,22.80
2022-12-26T16:04:38.998Z,21.30
2022-12-26T16:07:19.256Z,23.70
2022-12-26T16:09:56.643Z,26.70
2022-12-26T16:12:34.410Z,26.10
2022-12-26T16:15:10.702Z,24.10
2022-12-26T16:17:38.574Z,23.80
2022-12-26T16:20:51.087Z,23.20
2022-12-26T16:23:19.769Z,20.90
2022-12-26T16:25:48.079Z,26.20
2022-12-26T16:28:15.091Z,23.20
2022-12-26T16:30:42.139Z,29.00
2022-12-26T16:33:14.705Z,29.50
2022-12-26T16:35:42.376Z,27.50
2022-12-26T16:38:26.692Z,27.80
2022-12-26T16:40:55.936Z,23.70
2022-12-26T16:43:30.853Z,25.30
2022-12-26T16:46:03.800Z,34.50
2022-12-26T16:48:32.445Z,40.30
2022-12-26T16:51:06.961Z,44.50
2022-12-26T16:53:36.963Z,31.10
2022-12-26T16:56:33.918Z,35.10
2022-12-26T16:59:17.024Z,33.70
2022-12-26T21:17:57.936Z,45.10
2022-12-26T21:20:25.809Z,42.50
2022-12-26T21:22:53.867Z,45.70
2022-12-26T21:25:21.451Z,41.30
2022-12-26T21:27:49.703Z,49.40
2022-12-26T21:30:19.107Z,44.40
2022-12-26T21:32:46.482Z,48.30
2022-12-26T21:35:13.505Z,48.40
2022-12-26T21:37:51.632Z,46.70
2022-12-26T21:40:20.298Z,40.90
2022-12-26T21:42:47.252Z,47.90
2022-12-26T21:45:14.201Z,47.50
2022-12-26T21:47:41.744Z,46.80
2022-12-26T21:50:09.313Z,45.30
2022-12-26T21:52:36.246Z,47.20
2022-12-26T21:55:22.034Z,43.10
2022-12-26T21:57:48.983Z,42.80
2022-12-26T22:00:16.549Z,39.60
2022-12-26T22:03:02.405Z,38.10
2022-12-26T22:05:30.189Z,37.70
2022-12-26T22:07:59.193Z,35.40
2022-12-26T22:10:47.021Z,34.00
2022-12-26T22:13:13.982Z,31.30
2022-12-26T22:16:01.301Z,28.70
2022-12-26T22:18:29.666Z,25.60
2022-12-26T22:20:56.642Z,25.10
2022-12-26T22:23:24.274Z,27.90
2022-12-26T22:25:55.409Z,29.10
2022-12-26T22:28:23.451Z,23.10
2022-12-26T22:30:51.071Z,21.90
2022-12-26T22:33:19.791Z,23.10
2022-12-26T22:35:46.758Z,23.70
2022-12-26T22:38:14.024Z,22.70
2022-12-26T22:40:41.278Z,23.00
2022-12-26T22:43:08.224Z,23.70
2022-12-26T22:45:39.815Z,14.90
2022-12-26T22:48:07.251Z,14.70
2022-12-26T22:50:34.280Z,8.00
2022-12-26T22:53:01.682Z,9.50
2022-12-26T22:55:28.575Z,8.80
2022-12-26T22:58:00.551Z,8.30
2022-12-26T23:00:29.239Z,5.80
2022-12-26T23:02:56.792Z,6.10
2022-12-26T23:05:24.344Z,10.90
2022-12-26T23:07:51.700Z,8.70
2022-12-26T23:10:21.280Z,9.40
2022-12-26T23:12:48.582Z,12.00
2022-12-26T23:15:26.529Z,13.00
2022-12-26T23:18:34.265Z,7.70
2022-12-26T23:21:25.164Z,6.20
2022-12-26T23:23:51.972Z,6.00
2022-12-26T23:26:18.955Z,4.10
2022-12-26T23:29:04.871Z,2.70
2022-12-26T23:31:31.875Z,8.20
2022-12-26T23:33:58.949Z,11.40
2022-12-26T23:36:26.098Z,12.50
2022-12-26T23:38:53.132Z,14.90
2022-12-26T23:41:20.112Z,17.00
2022-12-26T23:43:47.066Z,20.90
2022-12-26T23:46:14.291Z,24.60
2022-12-26T23:48:41.330Z,23.10
2022-12-26T23:51:08.593Z,19.90
2022-12-26T23:53:37.798Z,22.30
2022-12-26T23:56:13.826Z,17.20
2022-12-26T23:58:42.385Z,14.80
